Time;durP1;ratioP1;P1;durP2;ratioP2;P2;SDS_P1;SDS_P2;PMS_P1;PMS_P2;Temp;Humidity;BMP_temperature;BMP_pressure;BME280_temperature;BME280_humidity;BME280_pressure;Samples;Min_cycle;Max_cycle;Signal;HPM_P1;HPM_P2
2022/01/11 00:00:08;;;;;;;;;;;;;;;1.45;nan;101842.78;5030921;28;20000;-86
2022/01/11 00:02:36;;;;;;;;;;;;;;;1.44;nan;101854.13;5030194;28;19928;-86
2022/01/11 00:05:02;;;;;;;;;;;;;;;1.49;nan;101849.59;5034384;28;19921;-86
2022/01/11 00:07:30;;;;;;;;;;;;;;;1.49;nan;101854.81;5029796;28;20009;-87
2022/01/11 00:09:57;;;;;;;;;;;;;;;1.48;nan;101853.97;5022610;28;19933;-86
2022/01/11 00:12:22;;;;;;;;;;;;;;;1.54;nan;101852.00;5027485;28;19952;-88
2022/01/11 00:14:47;;;;;;;;;;;;;;;1.55;nan;101849.34;5032279;28;19925;-85
2022/01/11 00:17:12;;;;;;;;;;;;;;;1.62;nan;101853.41;5028873;28;19967;-86
2022/01/11 00:19:38;;;;;;;;;;;;;;;1.70;nan;101853.09;5028978;28;19925;-86
2022/01/11 00:22:07;;;;;;;;;;;;;;;1.70;nan;101853.09;5033875;28;19921;-86
2022/01/11 00:24:35;;;;;;;;;;;;;;;1.60;nan;101855.22;5028275;28;19929;-86
2022/01/11 00:27:01;;;;;;;;;;;;;;;1.58;nan;101862.25;5031104;28;20011;-86
2022/01/11 00:29:27;;;;;;;;;;;;;;;1.62;nan;101865.56;5033048;28;19925;-86
2022/01/11 00:31:54;;;;;;;;;;;;;;;1.68;nan;101867.94;5028369;28;19921;-86
2022/01/11 00:34:22;;;;;;;;;;;;;;;1.72;nan;101872.16;5031856;28;19921;-85
2022/01/11 00:36:47;;;;;;;;;;;;;;;1.73;nan;101873.00;5031402;28;19936;-86
2022/01/11 00:39:12;;;;;;;;;;;;;;;1.73;nan;101871.22;5030905;28;19921;-86
2022/01/11 00:41:38;;;;;;;;;;;;;;;1.72;nan;101879.09;5022454;28;19925;-86
2022/01/11 00:44:04;;;;;;;;;;;;;;;1.77;nan;101891.06;5033103;28;19971;-86
2022/01/11 00:46:29;;;;;;;;;;;;;;;1.80;nan;101884.88;5033315;28;20402;-86
2022/01/11 00:48:54;;;;;;;;;;;;;;;1.78;nan;101887.53;5031075;28;19932;-86
2022/01/11 00:51:19;;;;;;;;;;;;;;;1.65;nan;101892.41;5032292;28;19921;-86
2022/01/11 00:53:45;;;;;;;;;;;;;;;1.72;nan;101885.19;5033870;28;19952;-86
2022/01/11 00:56:10;;;;;;;;;;;;;;;1.64;nan;101884.63;5032119;28;20384;-85
2022/01/11 00:58:35;;;;;;;;;;;;;;;1.66;nan;101888.03;5026171;28;20008;-86
2022/01/11 01:01:00;;;;;;;;;;;;;;;1.80;nan;101890.94;5029485;28;20322;-85
2022/01/11 01:03:26;;;;;;;;;;;;;;;1.68;nan;101887.06;5032369;28;19940;-85
2022/01/11 01:05:52;;;;;;;;;;;;;;;1.68;nan;101889.66;5032402;28;21150;-86
2022/01/11 01:08:17;;;;;;;;;;;;;;;1.66;nan;101890.63;5033866;28;19921;-86
2022/01/11 01:10:46;;;;;;;;;;;;;;;1.63;nan;101893.38;5030985;28;20387;-86
2022/01/11 01:13:17;;;;;;;;;;;;;;;1.44;nan;101898.44;5025580;28;19921;-86
2022/01/11 01:15:42;;;;;;;;;;;;;;;1.61;nan;101900.41;5032747;28;19921;-86
2022/01/11 01:18:11;;;;;;;;;;;;;;;1.61;nan;101890.81;5031791;28;20366;-86
2022/01/11 01:20:36;;;;;;;;;;;;;;;1.60;nan;101893.50;5028229;28;19928;-86
2022/01/11 01:23:01;;;;;;;;;;;;;;;1.63;nan;101893.38;5027728;28;19921;-86
2022/01/11 01:25:27;;;;;;;;;;;;;;;1.64;nan;101901.09;5038511;28;19956;-86
2022/01/11 01:27:52;;;;;;;;;;;;;;;1.71;nan;101893.91;5037701;28;19940;-86
2022/01/11 01:30:18;;;;;;;;;;;;;;;1.74;nan;101896.41;5029112;28;19979;-85
2022/01/11 01:32:44;;;;;;;;;;;;;;;1.80;nan;101890.94;5033785;28;19975;-86
2022/01/11 01:35:11;;;;;;;;;;;;;;;1.85;nan;101894.19;5030606;28;20218;-86
2022/01/11 01:37:36;;;;;;;;;;;;;;;1.90;nan;101899.22;5040124;28;19924;-88
2022/01/11 01:40:02;;;;;;;;;;;;;;;1.88;nan;101893.22;5041450;28;19921;-86
2022/01/11 01:42:29;;;;;;;;;;;;;;;1.91;nan;101887.91;5040817;28;19928;-85
2022/01/11 01:44:55;;;;;;;;;;;;;;;1.96;nan;101896.38;5043130;28;19924;-86
2022/01/11 01:47:20;;;;;;;;;;;;;;;1.91;nan;101895.72;5031440;28;19932;-86
2022/01/11 01:49:46;;;;;;;;;;;;;;;1.89;nan;101887.94;5043567;28;19931;-87
2022/01/11 01:52:14;;;;;;;;;;;;;;;1.89;nan;101901.00;5040542;28;20426;-86
2022/01/11 01:54:39;;;;;;;;;;;;;;;1.97;nan;101897.22;5027816;28;19921;-86
2022/01/11 01:57:04;;;;;;;;;;;;;;;1.95;nan;101894.66;5035363;28;19925;-87
2022/01/11 01:59:30;;;;;;;;;;;;;;;1.90;nan;101896.63;5038372;28;19993;-86
2022/01/11 02:01:56;;;;;;;;;;;;;;;1.93;nan;101906.91;5034696;28;19924;-86
2022/01/11 02:04:21;;;;;;;;;;;;;;;1.94;nan;101908.63;5034575;28;19982;-85
2022/01/11 02:06:46;;;;;;;;;;;;;;;1.88;nan;101906.25;5038697;28;19921;-86
2022/01/11 02:09:12;;;;;;;;;;;;;;;1.88;nan;101903.66;5036613;28;20016;-85
2022/01/11 02:11:38;;;;;;;;;;;;;;;1.84;nan;101905.56;5023232;28;19925;-86
2022/01/11 02:14:03;;;;;;;;;;;;;;;1.78;nan;101910.16;5036312;28;19921;-86
2022/01/11 02:16:29;;;;;;;;;;;;;;;1.66;nan;101912.34;5037688;28;20334;-86
2022/01/11 02:18:54;;;;;;;;;;;;;;;1.63;nan;101915.06;5037580;28;19964;-88
2022/01/11 02:21:20;;;;;;;;;;;;;;;1.60;nan;101925.63;5047062;28;19921;-86
2022/01/11 02:23:45;;;;;;;;;;;;;;;1.69;nan;101922.66;5045192;28;19971;-86
2022/01/11 02:26:11;;;;;;;;;;;;;;;1.67;nan;101934.91;5039366;28;19932;-86
2022/01/11 02:28:37;;;;;;;;;;;;;;;1.68;nan;101925.31;5035034;28;19921;-86
2022/01/11 02:31:04;;;;;;;;;;;;;;;1.65;nan;101926.28;5025528;28;19926;-87
2022/01/11 02:33:34;;;;;;;;;;;;;;;1.73;nan;101927.75;5026725;28;19929;-86
2022/01/11 02:36:04;;;;;;;;;;;;;;;1.60;nan;101932.59;5036965;28;19956;-86
2022/01/11 02:38:29;;;;;;;;;;;;;;;1.57;nan;101927.50;5044168;28;20042;-86
2022/01/11 02:40:55;;;;;;;;;;;;;;;1.53;nan;101925.94;5032878;28;19933;-84
2022/01/11 02:43:20;;;;;;;;;;;;;;;1.54;nan;101927.63;5036011;28;19964;-84
2022/01/11 02:45:45;;;;;;;;;;;;;;;1.35;nan;101925.69;5032469;28;19921;-86
2022/01/11 02:48:11;;;;;;;;;;;;;;;1.42;nan;101937.59;5031845;28;19921;-86
2022/01/11 02:50:36;;;;;;;;;;;;;;;1.48;nan;101939.97;5035971;28;20366;-85
2022/01/11 02:53:01;;;;;;;;;;;;;;;1.31;nan;101933.69;5038104;28;19921;-86
2022/01/11 02:55:27;;;;;;;;;;;;;;;1.09;nan;101928.44;5040448;28;19943;-86
2022/01/11 02:57:53;;;;;;;;;;;;;;;1.10;nan;101935.31;5040939;28;19924;-84
2022/01/11 03:00:19;;;;;;;;;;;;;;;1.12;nan;101930.91;5037002;28;20017;-86
2022/01/11 03:02:45;;;;;;;;;;;;;;;1.13;nan;101930.88;5033369;28;19928;-86
2022/01/11 03:05:11;;;;;;;;;;;;;;;1.26;nan;101933.84;5040478;28;19921;-86
2022/01/11 03:07:37;;;;;;;;;;;;;;;1.17;nan;101934.19;5031273;28;20358;-86
2022/01/11 03:10:27;;;;;;;;;;;;;;;1.17;nan;101931.59;5029488;28;19921;-86
2022/01/11 03:12:52;;;;;;;;;;;;;;;1.21;nan;101934.03;5056921;28;19921;-86
2022/01/11 03:15:17;;;;;;;;;;;;;;;1.11;nan;101937.88;5033098;28;19922;-87
2022/01/11 03:17:43;;;;;;;;;;;;;;;0.98;nan;101934.03;5035746;28;19953;-86
2022/01/11 03:20:09;;;;;;;;;;;;;;;0.93;nan;101929.00;5039999;28;19917;-86
2022/01/11 03:22:34;;;;;;;;;;;;;;;1.02;nan;101938.22;5039627;28;20114;-86
2022/01/11 03:24:59;;;;;;;;;;;;;;;0.94;nan;101935.91;5036940;28;19965;-86
2022/01/11 03:27:24;;;;;;;;;;;;;;;0.94;nan;101935.06;5035856;28;19968;-86
2022/01/11 03:29:53;;;;;;;;;;;;;;;0.93;nan;101942.03;5035457;28;19925;-85
2022/01/11 03:32:19;;;;;;;;;;;;;;;0.89;nan;101936.97;5036404;28;19918;-86
2022/01/11 03:34:45;;;;;;;;;;;;;;;0.97;nan;101942.75;5037471;28;19932;-86
2022/01/11 03:37:13;;;;;;;;;;;;;;;1.02;nan;101949.47;5038167;28;19925;-85
2022/01/11 03:39:38;;;;;;;;;;;;;;;0.97;nan;101948.81;5037804;28;19979;-85
2022/01/11 03:42:04;;;;;;;;;;;;;;;0.99;nan;101949.59;5034042;28;19921;-85
2022/01/11 03:44:29;;;;;;;;;;;;;;;0.94;nan;101950.69;5032480;28;19921;-85
2022/01/11 03:46:54;;;;;;;;;;;;;;;0.89;nan;101950.00;5036805;28;19925;-86
2022/01/11 03:49:19;;;;;;;;;;;;;;;1.02;nan;101954.69;5031235;28;20409;-85
2022/01/11 03:51:49;;;;;;;;;;;;;;;0.89;nan;101960.41;5035775;28;19925;-86
2022/01/11 03:54:16;;;;;;;;;;;;;;;0.87;nan;101963.06;5035323;28;19924;-87
2022/01/11 03:56:42;;;;;;;;;;;;;;;0.84;nan;101961.41;5036719;28;19928;-86
2022/01/11 03:59:07;;;;;;;;;;;;;;;0.90;nan;101960.34;5030917;28;19929;-86
2022/01/11 04:01:33;;;;;;;;;;;;;;;0.79;nan;101965.09;5021262;28;20000;-87
2022/01/11 04:03:59;;;;;;;;;;;;;;;0.89;nan;101968.22;5035743;28;19924;-87
2022/01/11 04:06:26;;;;;;;;;;;;;;;0.86;nan;101963.97;5034201;28;20016;-86
2022/01/11 04:08:51;;;;;;;;;;;;;;;0.80;nan;101961.56;5033555;28;19983;-85
2022/01/11 04:11:16;;;;;;;;;;;;;;;0.91;nan;101964.66;5036247;28;19928;-85
2022/01/11 04:13:41;;;;;;;;;;;;;;;0.87;nan;101957.84;5034609;28;19921;-84
2022/01/11 04:16:07;;;;;;;;;;;;;;;0.78;nan;101966.81;5034592;28;19921;-86
2022/01/11 04:18:32;;;;;;;;;;;;;;;0.89;nan;101971.69;5035368;28;19921;-85
2022/01/11 04:20:57;;;;;;;;;;;;;;;0.78;nan;101972.03;5036148;28;20293;-86
2022/01/11 04:23:23;;;;;;;;;;;;;;;0.70;nan;101971.47;5028088;28;19988;-86
2022/01/11 04:25:49;;;;;;;;;;;;;;;0.54;nan;101967.69;5027575;28;19993;-85
2022/01/11 04:28:14;;;;;;;;;;;;;;;0.65;nan;101967.31;5032426;28;19925;-86
2022/01/11 04:30:39;;;;;;;;;;;;;;;0.66;nan;101979.44;5033707;28;19925;-86
2022/01/11 04:33:05;;;;;;;;;;;;;;;0.70;nan;101981.03;5033003;28;19936;-86
2022/01/11 04:35:30;;;;;;;;;;;;;;;0.56;nan;101984.09;5032853;28;19928;-85
2022/01/11 04:37:55;;;;;;;;;;;;;;;0.68;nan;101982.84;5036458;28;19928;-86
2022/01/11 04:40:21;;;;;;;;;;;;;;;0.58;nan;101985.75;5030871;28;19988;-86
2022/01/11 04:42:46;;;;;;;;;;;;;;;0.74;nan;101998.22;5034601;28;19925;-85
2022/01/11 04:45:14;;;;;;;;;;;;;;;0.79;nan;101991.13;5033748;28;19928;-85
2022/01/11 04:47:40;;;;;;;;;;;;;;;0.69;nan;101992.31;5031789;28;20299;-85
2022/01/11 04:50:06;;;;;;;;;;;;;;;0.79;nan;101998.94;5035547;28;20451;-85
2022/01/11 04:52:31;;;;;;;;;;;;;;;0.73;nan;101996.53;5038400;28;19940;-84
2022/01/11 04:54:56;;;;;;;;;;;;;;;0.79;nan;101999.78;5034776;28;19921;-86
2022/01/11 04:57:21;;;;;;;;;;;;;;;0.75;nan;102003.38;5034415;28;19929;-85
2022/01/11 04:59:46;;;;;;;;;;;;;;;0.72;nan;102002.66;5034460;28;19921;-85
2022/01/11 05:02:12;;;;;;;;;;;;;;;0.59;nan;102005.66;5029618;28;19928;-86
2022/01/11 05:04:37;;;;;;;;;;;;;;;0.62;nan;102008.19;5033159;28;19932;-86
2022/01/11 05:07:02;;;;;;;;;;;;;;;0.63;nan;102006.41;5033096;28;19972;-85
2022/01/11 05:09:27;;;;;;;;;;;;;;;0.64;nan;102005.50;5033077;28;20375;-86
2022/01/11 05:11:52;;;;;;;;;;;;;;;0.73;nan;102015.59;5032769;28;19928;-86
2022/01/11 05:14:18;;;;;;;;;;;;;;;0.76;nan;102012.91;5034227;28;19921;-86
2022/01/11 05:16:43;;;;;;;;;;;;;;;0.78;nan;102008.50;5032407;28;19925;-86
2022/01/11 05:19:12;;;;;;;;;;;;;;;0.90;nan;102006.38;5025274;28;20019;-86
2022/01/11 05:21:38;;;;;;;;;;;;;;;0.86;nan;102005.66;5034805;28;19925;-84
2022/01/11 05:24:03;;;;;;;;;;;;;;;0.78;nan;102005.03;5034475;28;20406;-86
2022/01/11 05:26:28;;;;;;;;;;;;;;;0.80;nan;102004.09;5034442;28;19921;-86
2022/01/11 05:28:53;;;;;;;;;;;;;;;0.73;nan;101999.13;5023599;28;19925;-86
2022/01/11 05:31:19;;;;;;;;;;;;;;;0.81;nan;101997.13;5034965;28;19935;-86
2022/01/11 05:33:44;;;;;;;;;;;;;;;0.80;nan;102003.25;5033668;28;19931;-85
2022/01/11 05:36:09;;;;;;;;;;;;;;;0.78;nan;102007.63;5033708;28;19921;-86
2022/01/11 05:38:34;;;;;;;;;;;;;;;0.80;nan;102011.06;5032083;28;20035;-85
2022/01/11 05:40:59;;;;;;;;;;;;;;;0.87;nan;102011.69;5022525;28;19942;-85
2022/01/11 05:43:25;;;;;;;;;;;;;;;0.77;nan;102005.97;5033486;28;19983;-85
2022/01/11 05:45:50;;;;;;;;;;;;;;;0.77;nan;102005.97;5037622;28;19960;-85
2022/01/11 05:48:15;;;;;;;;;;;;;;;0.71;nan;102013.97;5025308;28;20022;-85
2022/01/11 05:50:43;;;;;;;;;;;;;;;0.83;nan;102026.56;5037683;28;19925;-85
2022/01/11 05:53:08;;;;;;;;;;;;;;;0.80;nan;102018.84;5038990;28;19921;-85
2022/01/11 05:55:33;;;;;;;;;;;;;;;0.85;nan;102024.75;5039819;28;19939;-85
2022/01/11 05:57:58;;;;;;;;;;;;;;;0.85;nan;102024.75;5038259;28;19921;-85
2022/01/11 06:00:24;;;;;;;;;;;;;;;0.94;nan;102027.06;5036949;28;19922;-85
2022/01/11 06:02:52;;;;;;;;;;;;;;;0.88;nan;102029.84;5027134;28;19917;-86
2022/01/11 06:05:18;;;;;;;;;;;;;;;0.96;nan;102032.22;5035207;28;19921;-85
2022/01/11 06:07:43;;;;;;;;;;;;;;;0.92;nan;102031.47;5033950;28;19921;-85
2022/01/11 06:10:08;;;;;;;;;;;;;;;0.77;nan;102021.56;5035842;28;19921;-85
2022/01/11 06:12:33;;;;;;;;;;;;;;;0.85;nan;102035.19;5037623;28;19952;-85
2022/01/11 06:14:59;;;;;;;;;;;;;;;0.76;nan;102033.75;5031238;28;19922;-85
2022/01/11 06:17:24;;;;;;;;;;;;;;;0.88;nan;102044.63;5034558;28;19972;-85
2022/01/11 06:19:49;;;;;;;;;;;;;;;0.92;nan;102039.28;5036070;28;20378;-85
2022/01/11 06:22:14;;;;;;;;;;;;;;;0.71;nan;102046.03;5034880;28;19931;-84
2022/01/11 06:24:39;;;;;;;;;;;;;;;0.74;nan;102047.69;5029582;28;19935;-84
2022/01/11 06:27:05;;;;;;;;;;;;;;;0.69;nan;102044.41;5036828;28;20085;-85
2022/01/11 06:29:30;;;;;;;;;;;;;;;0.82;nan;102051.75;5035571;28;19928;-85
2022/01/11 06:31:55;;;;;;;;;;;;;;;0.89;nan;102052.41;5035648;28;19921;-85
2022/01/11 06:34:20;;;;;;;;;;;;;;;0.76;nan;102057.19;5036660;28;19924;-86
2022/01/11 06:36:46;;;;;;;;;;;;;;;0.68;nan;102059.16;5035475;28;19937;-85
2022/01/11 06:39:11;;;;;;;;;;;;;;;0.63;nan;102061.94;5037117;28;20294;-85
2022/01/11 06:41:36;;;;;;;;;;;;;;;0.63;nan;102061.94;5037270;28;19925;-85
2022/01/11 06:44:01;;;;;;;;;;;;;;;0.75;nan;102065.88;5036874;28;19925;-87
2022/01/11 06:46:28;;;;;;;;;;;;;;;0.70;nan;102065.19;5036493;28;19928;-86
2022/01/11 06:48:54;;;;;;;;;;;;;;;0.82;nan;102072.59;5038010;28;19969;-86
2022/01/11 06:51:19;;;;;;;;;;;;;;;0.85;nan;102079.44;5036470;28;19921;-84
2022/01/11 06:53:45;;;;;;;;;;;;;;;0.80;nan;102069.19;5037011;28;19929;-85
2022/01/11 06:56:10;;;;;;;;;;;;;;;0.68;nan;102074.78;5027012;28;19925;-86
2022/01/11 06:58:38;;;;;;;;;;;;;;;0.91;nan;102083.63;5031156;28;19956;-84
2022/01/11 07:01:03;;;;;;;;;;;;;;;0.93;nan;102081.78;5038901;28;19921;-84
2022/01/11 07:03:28;;;;;;;;;;;;;;;0.83;nan;102082.13;5038141;28;19928;-84
2022/01/11 07:05:53;;;;;;;;;;;;;;;0.84;nan;102086.41;5035760;28;19926;-85
2022/01/11 07:08:19;;;;;;;;;;;;;;;0.82;nan;102084.75;5034743;28;19914;-85
2022/01/11 07:10:44;;;;;;;;;;;;;;;0.83;nan;102089.06;5032512;28;20025;-84
2022/01/11 07:13:10;;;;;;;;;;;;;;;0.86;nan;102096.78;5029955;28;20016;-85
2022/01/11 07:15:35;;;;;;;;;;;;;;;0.88;nan;102102.78;5038647;28;19961;-85
2022/01/11 07:18:06;;;;;;;;;;;;;;;0.88;nan;102091.50;5037544;28;19991;-86
2022/01/11 07:20:31;;;;;;;;;;;;;;;0.80;nan;102091.78;5039131;28;20401;-86
2022/01/11 07:22:56;;;;;;;;;;;;;;;0.93;nan;102100.91;5038461;28;19921;-85
2022/01/11 07:25:22;;;;;;;;;;;;;;;0.92;nan;102109.59;5021683;28;19922;-85
2022/01/11 07:27:47;;;;;;;;;;;;;;;1.00;nan;102104.13;5036231;28;20433;-85
2022/01/11 07:30:13;;;;;;;;;;;;;;;1.05;nan;102110.06;5033891;28;19948;-85
2022/01/11 07:32:38;;;;;;;;;;;;;;;1.08;nan;102102.13;5036139;28;19975;-84
2022/01/11 07:35:03;;;;;;;;;;;;;;;1.07;nan;102113.44;5038725;28;20558;-85
2022/01/11 07:37:28;;;;;;;;;;;;;;;1.09;nan;102113.38;5037040;28;19921;-85
2022/01/11 07:39:54;;;;;;;;;;;;;;;1.11;nan;102120.25;5037217;28;19955;-84
2022/01/11 07:42:19;;;;;;;;;;;;;;;1.16;nan;102122.69;5029538;28;19978;-85
2022/01/11 07:44:46;;;;;;;;;;;;;;;1.24;nan;102115.47;5036498;28;19929;-85
2022/01/11 07:47:11;;;;;;;;;;;;;;;1.19;nan;102115.66;5018119;28;19937;-86
2022/01/11 07:49:36;;;;;;;;;;;;;;;1.18;nan;102110.47;5020151;28;19968;-85
2022/01/11 07:52:02;;;;;;;;;;;;;;;1.24;nan;102115.47;5026160;28;19964;-86
2022/01/11 07:54:27;;;;;;;;;;;;;;;1.24;nan;102118.94;5030163;28;19921;-85
2022/01/11 07:56:52;;;;;;;;;;;;;;;1.29;nan;102116.19;5035298;28;19920;-85
2022/01/11 07:59:17;;;;;;;;;;;;;;;1.36;nan;102122.88;5035089;28;20298;-85
2022/01/11 08:01:43;;;;;;;;;;;;;;;1.46;nan;102126.84;5022961;28;20004;-86
2022/01/11 08:04:08;;;;;;;;;;;;;;;1.51;nan;102128.47;5025166;28;19928;-85
2022/01/11 08:06:33;;;;;;;;;;;;;;;1.62;nan;102126.31;5026914;28;19921;-86
2022/01/11 08:08:59;;;;;;;;;;;;;;;1.66;nan;102135.72;5031009;28;19929;-85
2022/01/11 08:11:24;;;;;;;;;;;;;;;1.72;nan;102137.25;5034257;28;19956;-85
2022/01/11 08:13:50;;;;;;;;;;;;;;;1.76;nan;102144.91;5031097;28;19975;-84
2022/01/11 08:16:15;;;;;;;;;;;;;;;1.82;nan;102138.66;5030240;28;20204;-85
2022/01/11 08:18:40;;;;;;;;;;;;;;;1.89;nan;102146.19;5033982;28;19924;-85
2022/01/11 08:21:06;;;;;;;;;;;;;;;1.97;nan;102148.50;5033636;28;19967;-86
2022/01/11 08:23:31;;;;;;;;;;;;;;;1.99;nan;102146.69;5026567;28;19921;-85
2022/01/11 08:25:56;;;;;;;;;;;;;;;2.05;nan;102151.69;5031293;28;19928;-85
2022/01/11 08:28:22;;;;;;;;;;;;;;;2.00;nan;102148.41;5027993;28;19929;-85
2022/01/11 08:30:47;;;;;;;;;;;;;;;2.09;nan;102153.25;5034885;28;19947;-86
2022/01/11 08:33:12;;;;;;;;;;;;;;;2.21;nan;102149.34;5035140;28;19925;-84
2022/01/11 08:35:38;;;;;;;;;;;;;;;2.22;nan;102152.84;5028941;28;19921;-85
2022/01/11 08:38:03;;;;;;;;;;;;;;;2.33;nan;102148.03;5031961;28;19971;-85
2022/01/11 08:40:29;;;;;;;;;;;;;;;2.48;nan;102146.59;5035038;28;19921;-86
2022/01/11 08:42:54;;;;;;;;;;;;;;;2.60;nan;102150.47;5034048;28;19929;-85
2022/01/11 08:45:20;;;;;;;;;;;;;;;2.68;nan;102151.88;5033519;28;19963;-85
2022/01/11 08:47:45;;;;;;;;;;;;;;;2.66;nan;102152.88;5034144;28;19921;-86
2022/01/11 08:50:14;;;;;;;;;;;;;;;2.80;nan;102147.94;5033735;28;19929;-85
2022/01/11 08:52:39;;;;;;;;;;;;;;;2.90;nan;102148.41;5020891;28;19964;-85
2022/01/11 08:55:07;;;;;;;;;;;;;;;2.90;nan;102154.47;5030194;28;20289;-85
2022/01/11 08:57:32;;;;;;;;;;;;;;;2.99;nan;102148.03;5023212;28;19921;-85
2022/01/11 08:59:57;;;;;;;;;;;;;;;3.12;nan;102151.88;5028478;28;19921;-85
2022/01/11 09:02:24;;;;;;;;;;;;;;;3.17;nan;102152.53;5031840;28;20401;-85
2022/01/11 09:04:52;;;;;;;;;;;;;;;3.24;nan;102158.31;5026510;28;19943;-85
2022/01/11 09:07:17;;;;;;;;;;;;;;;3.30;nan;102157.22;5033850;28;19944;-85
2022/01/11 09:09:43;;;;;;;;;;;;;;;3.31;nan;102158.91;5033415;28;19925;-85
2022/01/11 09:12:10;;;;;;;;;;;;;;;3.23;nan;102155.78;5032642;28;20003;-85
2022/01/11 09:14:36;;;;;;;;;;;;;;;3.27;nan;102159.97;5032999;28;19971;-85
2022/01/11 09:17:04;;;;;;;;;;;;;;;3.34;nan;102162.25;5033225;28;19921;-86
2022/01/11 09:19:30;;;;;;;;;;;;;;;3.32;nan;102164.09;5031597;28;19928;-85
2022/01/11 09:21:55;;;;;;;;;;;;;;;3.42;nan;102161.09;5032450;28;20493;-85
2022/01/11 09:24:21;;;;;;;;;;;;;;;3.54;nan;102169.25;5026283;28;20176;-85
2022/01/11 09:26:48;;;;;;;;;;;;;;;3.64;nan;102169.69;5035643;28;19921;-85
2022/01/11 09:29:14;;;;;;;;;;;;;;;3.53;nan;102172.78;5032894;28;19921;-86
2022/01/11 09:31:39;;;;;;;;;;;;;;;3.56;nan;102174.44;5036713;28;19952;-87
2022/01/11 09:34:04;;;;;;;;;;;;;;;3.66;nan;102180.94;5035408;28;19921;-85
2022/01/11 09:36:29;;;;;;;;;;;;;;;3.79;nan;102183.88;5034236;28;19928;-85
2022/01/11 09:38:55;;;;;;;;;;;;;;;3.86;nan;102171.38;5034529;28;19997;-86
2022/01/11 09:41:20;;;;;;;;;;;;;;;3.92;nan;102176.34;5039772;28;19921;-86
2022/01/11 09:43:46;;;;;;;;;;;;;;;3.97;nan;102177.00;5039449;28;19926;-86
2022/01/11 09:46:12;;;;;;;;;;;;;;;4.06;nan;102184.44;5040191;28;19921;-86
2022/01/11 09:48:37;;;;;;;;;;;;;;;4.03;nan;102180.19;5038722;28;19932;-85
2022/01/11 09:51:03;;;;;;;;;;;;;;;4.14;nan;102181.47;5039698;28;19934;-85
2022/01/11 09:53:28;;;;;;;;;;;;;;;4.19;nan;102185.56;5039900;28;19921;-86
2022/01/11 09:55:54;;;;;;;;;;;;;;;4.20;nan;102189.91;5036337;28;19976;-86
2022/01/11 09:58:19;;;;;;;;;;;;;;;4.15;nan;102194.50;5030956;28;19921;-86
2022/01/11 10:00:45;;;;;;;;;;;;;;;4.14;nan;102192.78;5032343;28;19921;-86
2022/01/11 10:03:10;;;;;;;;;;;;;;;4.25;nan;102190.53;5040223;28;19940;-86
2022/01/11 10:05:37;;;;;;;;;;;;;;;4.39;nan;102196.91;5041750;28;20314;-86
2022/01/11 10:08:18;;;;;;;;;;;;;;;4.30;nan;102198.19;5041822;28;19921;-86
2022/01/11 10:10:44;;;;;;;;;;;;;;;4.36;nan;102195.28;5035139;28;19932;-86
2022/01/11 10:13:26;;;;;;;;;;;;;;;4.24;nan;102201.06;5042556;28;19925;-86
2022/01/11 10:15:54;;;;;;;;;;;;;;;4.21;nan;102202.06;5036659;28;19994;-86
2022/01/11 10:18:35;;;;;;;;;;;;;;;4.02;nan;102190.72;5041320;28;19988;-86
2022/01/11 10:21:00;;;;;;;;;;;;;;;3.92;nan;102192.06;5043001;28;19921;-85
2022/01/11 10:23:33;;;;;;;;;;;;;;;3.89;nan;102190.44;5040502;28;19921;-86
2022/01/11 10:25:58;;;;;;;;;;;;;;;3.80;nan;102188.22;5032055;28;19974;-86
2022/01/11 10:28:34;;;;;;;;;;;;;;;3.80;nan;102193.44;5033783;28;19957;-85
2022/01/11 10:30:59;;;;;;;;;;;;;;;3.81;nan;102184.66;5042584;28;19947;-86
2022/01/11 10:33:24;;;;;;;;;;;;;;;3.88;nan;102190.47;5036995;28;19971;-85
2022/01/11 10:35:49;;;;;;;;;;;;;;;3.92;nan;102192.06;5037005;28;20378;-86
2022/01/11 10:38:23;;;;;;;;;;;;;;;3.86;nan;102190.53;5038539;28;20300;-86
2022/01/11 10:40:48;;;;;;;;;;;;;;;3.88;nan;102193.94;5039263;28;20015;-86
2022/01/11 10:43:15;;;;;;;;;;;;;;;3.97;nan;102187.47;5021658;28;20042;-86
2022/01/11 10:45:43;;;;;;;;;;;;;;;4.08;nan;102192.22;5036507;28;19928;-87
2022/01/11 10:48:10;;;;;;;;;;;;;;;4.06;nan;102194.06;5036662;28;19921;-87
2022/01/11 10:50:37;;;;;;;;;;;;;;;4.07;nan;102193.13;5038988;28;20436;-85
2022/01/11 10:53:13;;;;;;;;;;;;;;;4.16;nan;102198.81;5028691;28;19922;-86
2022/01/11 10:55:39;;;;;;;;;;;;;;;4.12;nan;102197.22;5031260;28;20016;-85
2022/01/11 10:58:05;;;;;;;;;;;;;;;4.19;nan;102192.56;5037806;28;19949;-85
2022/01/11 11:00:35;;;;;;;;;;;;;;;3.97;nan;102192.69;5036273;28;19921;-86
2022/01/11 11:03:03;;;;;;;;;;;;;;;4.02;nan;102196.78;5038439;28;19956;-85
2022/01/11 11:05:33;;;;;;;;;;;;;;;4.17;nan;102205.75;5038277;28;20379;-86
2022/01/11 11:08:01;;;;;;;;;;;;;;;4.25;nan;102208.03;5037017;28;19929;-86
2022/01/11 11:10:29;;;;;;;;;;;;;;;4.28;nan;102202.63;5036110;28;19925;-85
2022/01/11 11:12:54;;;;;;;;;;;;;;;4.30;nan;102198.19;5030858;28;20394;-86
2022/01/11 11:15:26;;;;;;;;;;;;;;;4.24;nan;102209.78;5038665;28;19929;-86
2022/01/11 11:17:51;;;;;;;;;;;;;;;4.33;nan;102203.28;5032535;28;20415;-85
2022/01/11 11:20:16;;;;;;;;;;;;;;;4.35;nan;102206.69;5026223;28;19964;-85
2022/01/11 11:22:41;;;;;;;;;;;;;;;4.25;nan;102205.41;5018360;28;19917;-86
2022/01/11 11:25:07;;;;;;;;;;;;;;;4.26;nan;102202.69;5016584;28;19925;-85
2022/01/11 11:27:33;;;;;;;;;;;;;;;4.24;nan;102195.84;5021914;28;19917;-85
2022/01/11 11:29:59;;;;;;;;;;;;;;;4.33;nan;102205.88;4998384;28;19929;-85
2022/01/11 11:32:25;;;;;;;;;;;;;;;4.33;nan;102202.44;4997924;28;19921;-85
2022/01/11 11:34:50;;;;;;;;;;;;;;;4.39;nan;102200.38;4997914;28;20417;-85
2022/01/11 11:37:21;;;;;;;;;;;;;;;4.10;nan;102195.59;5015316;28;19921;-86
2022/01/11 11:39:51;;;;;;;;;;;;;;;4.25;nan;102203.63;5018163;28;19943;-85
2022/01/11 11:42:18;;;;;;;;;;;;;;;4.22;nan;102200.31;5015974;28;19917;-86
2022/01/11 11:44:44;;;;;;;;;;;;;;;4.39;nan;102194.31;5017166;28;20008;-85
2022/01/11 11:47:10;;;;;;;;;;;;;;;4.47;nan;102194.78;4996954;28;19933;-85
2022/01/11 11:49:48;;;;;;;;;;;;;;;4.50;nan;102186.78;4999159;28;19952;-85
2022/01/11 11:52:24;;;;;;;;;;;;;;;4.51;nan;102190.28;4991181;28;19945;-85
2022/01/11 11:54:53;;;;;;;;;;;;;;;4.63;nan;102193.16;4999177;28;20424;-85
2022/01/11 11:57:20;;;;;;;;;;;;;;;4.60;nan;102188.06;5017634;28;19985;-85
2022/01/11 11:59:50;;;;;;;;;;;;;;;4.73;nan;102185.69;4993006;28;19922;-85
2022/01/11 12:02:29;;;;;;;;;;;;;;;4.75;nan;102183.03;5013320;28;19922;-86
2022/01/11 12:04:54;;;;;;;;;;;;;;;4.85;nan;102181.66;5017327;28;19936;-85
2022/01/11 12:07:35;;;;;;;;;;;;;;;4.86;nan;102185.94;5017220;28;19922;-85
2022/01/11 12:10:00;;;;;;;;;;;;;;;4.94;nan;102182.97;4999787;28;19926;-84
2022/01/11 12:13:02;;;;;;;;;;;;;;;4.84;nan;102175.56;4999345;28;20185;-85
2022/01/11 12:15:35;;;;;;;;;;;;;;;5.03;nan;102172.91;4978669;28;19922;-85
2022/01/11 12:18:00;;;;;;;;;;;;;;;5.01;nan;102169.50;4996704;28;19922;-85
2022/01/11 12:20:40;;;;;;;;;;;;;;;5.16;nan;102170.50;5016892;28;19979;-85
2022/01/11 12:23:06;;;;;;;;;;;;;;;5.17;nan;102153.00;5017749;28;19917;-85
2022/01/11 12:25:42;;;;;;;;;;;;;;;5.20;nan;102156.31;4998375;28;19921;-85
2022/01/11 12:28:13;;;;;;;;;;;;;;;5.24;nan;102157.00;4992977;28;19964;-86
2022/01/11 12:30:38;;;;;;;;;;;;;;;5.31;nan;102148.78;4999784;28;19929;-85
2022/01/11 12:33:32;;;;;;;;;;;;;;;5.33;nan;102153.91;5011817;28;19928;-85
2022/01/11 12:36:06;;;;;;;;;;;;;;;5.33;nan;102152.13;5022091;28;20187;-85
2022/01/11 12:38:33;;;;;;;;;;;;;;;5.29;nan;102145.38;5036953;28;19968;-85
2022/01/11 12:41:19;;;;;;;;;;;;;;;5.32;nan;102147.84;5012095;28;19918;-84
2022/01/11 12:43:49;;;;;;;;;;;;;;;5.35;nan;102152.06;5021841;28;19925;-86
2022/01/11 12:46:14;;;;;;;;;;;;;;;5.25;nan;102156.09;5035542;28;20387;-85
2022/01/11 12:48:42;;;;;;;;;;;;;;;5.22;nan;102146.59;5037328;28;19924;-85
2022/01/11 12:51:08;;;;;;;;;;;;;;;5.28;nan;102143.66;5037382;28;20276;-86
2022/01/11 12:53:33;;;;;;;;;;;;;;;5.25;nan;102154.31;5032948;28;19928;-85
2022/01/11 12:55:59;;;;;;;;;;;;;;;5.20;nan;102152.84;5024936;28;20006;-85
2022/01/11 12:58:24;;;;;;;;;;;;;;;5.25;nan;102149.06;5017619;28;19929;-84
2022/01/11 13:00:50;;;;;;;;;;;;;;;5.24;nan;102147.38;5033609;28;19968;-85
2022/01/11 13:03:15;;;;;;;;;;;;;;;5.26;nan;102145.50;5035381;28;19940;-85